Time;durP1;ratioP1;P1;durP2;ratioP2;P2;SDS_P1;SDS_P2;PMS_P1;PMS_P2;Temp;Humidity;BMP_temperature;BMP_pressure;BME280_temperature;BME280_humidity;BME280_pressure;Samples;Min_cycle;Max_cycle;Signal;HPM_P1;HPM_P2
2020/12/28 00:02:23;;;;;;;4.88;2.35;;;4.50;99.90;;;;;;5016061;28;20455;-78
2020/12/28 00:04:49;;;;;;;6.57;1.80;;;4.50;99.90;;;;;;5015545;28;20033;-78
2020/12/28 00:07:15;;;;;;;3.97;1.98;;;4.50;99.90;;;;;;5015886;28;20045;-77
2020/12/28 00:09:42;;;;;;;3.33;1.70;;;4.50;99.90;;;;;;5015639;28;20026;-78
2020/12/28 00:12:09;;;;;;;2.95;1.67;;;4.50;99.90;;;;;;5015917;28;20040;-78
2020/12/28 00:14:35;;;;;;;2.47;1.77;;;4.50;99.90;;;;;;5015171;28;20049;-78
2020/12/28 00:17:01;;;;;;;4.28;1.70;;;4.50;99.90;;;;;;5015131;28;20041;-78
2020/12/28 00:19:27;;;;;;;2.50;1.13;;;4.50;99.90;;;;;;5014788;28;20054;-79
2020/12/28 00:21:54;;;;;;;3.38;1.23;;;4.50;99.90;;;;;;5015607;28;20045;-78
2020/12/28 00:24:20;;;;;;;2.67;1.45;;;4.50;99.90;;;;;;5015336;28;20030;-79
2020/12/28 00:26:46;;;;;;;3.25;1.33;;;4.50;99.90;;;;;;5015087;28;20040;-78
2020/12/28 00:29:14;;;;;;;2.28;1.35;;;4.50;99.90;;;;;;5014703;28;20053;-78
2020/12/28 00:31:44;;;;;;;2.37;1.20;;;4.50;99.90;;;;;;5033150;28;20052;-78
2020/12/28 00:34:11;;;;;;;4.60;1.60;;;4.50;99.90;;;;;;5016204;28;20037;-78
2020/12/28 00:36:37;;;;;;;3.47;1.85;;;4.50;99.90;;;;;;5014921;28;20388;-78
2020/12/28 00:39:05;;;;;;;3.67;1.45;;;4.50;99.90;;;;;;5014107;28;20046;-78
2020/12/28 00:41:32;;;;;;;3.00;1.42;;;4.50;99.90;;;;;;5023350;28;20042;-78
2020/12/28 00:43:58;;;;;;;2.88;1.58;;;4.60;99.90;;;;;;5015349;28;20042;-78
2020/12/28 00:46:24;;;;;;;3.55;1.58;;;4.60;99.90;;;;;;5015176;28;20033;-80
2020/12/28 00:48:51;;;;;;;3.97;1.52;;;4.70;99.90;;;;;;5013639;28;20042;-77
2020/12/28 00:51:17;;;;;;;3.72;1.70;;;4.70;99.90;;;;;;5014596;28;20049;-77
2020/12/28 00:53:43;;;;;;;4.03;1.70;;;4.60;99.90;;;;;;5014344;28;20038;-78
2020/12/28 00:56:13;;;;;;;5.20;1.35;;;4.60;99.90;;;;;;5014401;28;20426;-77
2020/12/28 00:58:39;;;;;;;3.40;1.52;;;4.60;99.90;;;;;;5014546;28;20374;-76
2020/12/28 01:01:08;;;;;;;2.30;1.10;;;4.70;99.90;;;;;;5014553;28;20053;-76
2020/12/28 01:03:35;;;;;;;2.95;1.30;;;4.70;99.90;;;;;;5013403;28;20038;-76
2020/12/28 01:06:19;;;;;;;2.10;0.93;;;4.70;99.90;;;;;;5027044;28;20042;-76
2020/12/28 01:08:53;;;;;;;3.60;1.17;;;4.70;99.90;;;;;;5009283;28;20057;-76
2020/12/28 01:11:21;;;;;;;1.75;1.17;;;4.80;99.90;;;;;;5013582;28;20046;-76
2020/12/28 01:13:51;;;;;;;1.75;0.88;;;4.80;99.90;;;;;;5013972;28;20049;-76
2020/12/28 01:16:17;;;;;;;3.00;1.20;;;4.70;99.90;;;;;;5015105;28;20061;-76
2020/12/28 01:18:46;;;;;;;1.85;1.10;;;4.70;99.90;;;;;;5007302;28;20035;-76
2020/12/28 01:21:23;;;;;;;4.40;1.05;;;4.80;99.90;;;;;;5029525;28;20518;-76
2020/12/28 01:23:50;;;;;;;2.88;1.35;;;4.80;99.90;;;;;;5029081;28;20049;-76
2020/12/28 01:26:18;;;;;;;2.28;1.10;;;4.80;99.90;;;;;;5023311;28;20450;-76
2020/12/28 01:28:50;;;;;;;1.83;0.70;;;4.90;99.90;;;;;;5028108;28;20049;-76
2020/12/28 01:31:17;;;;;;;1.65;0.73;;;4.90;99.90;;;;;;5014512;28;20054;-76
2020/12/28 01:34:02;;;;;;;1.63;0.60;;;4.90;99.90;;;;;;5014778;28;20033;-76
2020/12/28 01:36:34;;;;;;;1.73;0.60;;;5.00;99.90;;;;;;5014579;28;20038;-77
2020/12/28 01:39:05;;;;;;;1.83;0.80;;;5.00;99.90;;;;;;5013331;28;20034;-78
2020/12/28 01:41:32;;;;;;;1.23;0.50;;;5.00;99.90;;;;;;5021637;28;20042;-77
2020/12/28 01:43:59;;;;;;;0.82;0.40;;;5.00;99.90;;;;;;5024483;28;20042;-77
2020/12/28 01:46:26;;;;;;;1.75;0.75;;;5.00;99.90;;;;;;5012928;28;20058;-77
2020/12/28 01:48:53;;;;;;;1.90;1.02;;;5.00;99.90;;;;;;5012874;28;20033;-76
2020/12/28 01:51:24;;;;;;;8.25;4.28;;;5.00;99.90;;;;;;5013383;28;20372;-76
2020/12/28 01:53:51;;;;;;;26.50;9.70;;;5.00;99.90;;;;;;5015370;28;20033;-76
2020/12/28 01:56:41;;;;;;;335.10;134.18;;;5.00;99.90;;;;;;5027602;28;20042;-76
2020/12/28 01:59:08;;;;;;;301.83;119.55;;;5.00;99.90;;;;;;5012772;28;20046;-77
2020/12/28 02:01:41;;;;;;;45.58;20.17;;;5.00;99.90;;;;;;5011489;28;20048;-77
2020/12/28 02:04:09;;;;;;;169.32;69.68;;;5.00;99.90;;;;;;5012533;28;20042;-76
2020/12/28 02:06:41;;;;;;;65.97;28.63;;;5.00;99.90;;;;;;5027845;28;20057;-77
2020/12/28 02:09:12;;;;;;;69.63;31.00;;;5.00;99.90;;;;;;5012030;28;20041;-76
2020/12/28 02:11:38;;;;;;;36.88;14.80;;;5.00;99.90;;;;;;5012312;28;20041;-76
2020/12/28 02:14:04;;;;;;;103.07;41.33;;;5.00;99.90;;;;;;5012906;28;20037;-75
2020/12/28 02:16:42;;;;;;;214.82;82.18;;;5.00;99.90;;;;;;5011566;28;20049;-76
2020/12/28 02:19:15;;;;;;;31.25;12.15;;;5.00;99.90;;;;;;5015463;28;20053;-75
2020/12/28 02:21:46;;;;;;;36.90;14.00;;;5.00;99.90;;;;;;5012253;28;20052;-75
2020/12/28 02:24:16;;;;;;;92.47;32.15;;;5.00;99.90;;;;;;5012362;28;20041;-75
2020/12/28 02:26:46;;;;;;;48.47;19.05;;;5.00;99.90;;;;;;5014957;28;20042;-77
2020/12/28 02:29:12;;;;;;;29.92;10.98;;;5.00;99.90;;;;;;5010487;28;20049;-76
2020/12/28 02:31:39;;;;;;;110.85;37.38;;;5.00;99.90;;;;;;5011892;28;20044;-77
2020/12/28 02:34:39;;;;;;;36.08;12.80;;;5.00;99.90;;;;;;5011622;28;20494;-76
2020/12/28 02:37:12;;;;;;;48.13;18.15;;;5.00;99.90;;;;;;5021048;28;20053;-77
2020/12/28 02:39:56;;;;;;;77.22;26.73;;;5.10;99.90;;;;;;5013172;28;20041;-76
2020/12/28 02:42:23;;;;;;;26.58;9.40;;;5.10;99.90;;;;;;5011542;28;20034;-76
2020/12/28 02:45:07;;;;;;;68.90;26.67;;;5.10;99.90;;;;;;5012967;28;20521;-80
2020/12/28 02:47:52;;;;;;;130.38;52.67;;;5.10;99.90;;;;;;5016390;28;20041;-76
2020/12/28 02:50:37;;;;;;;58.92;27.08;;;5.10;99.90;;;;;;5012434;28;20060;-77
2020/12/28 02:53:22;;;;;;;77.43;25.73;;;5.10;99.90;;;;;;5018660;28;20414;-76
2020/12/28 02:56:06;;;;;;;18.63;7.65;;;5.10;99.90;;;;;;5019536;28;20052;-78
2020/12/28 02:58:51;;;;;;;32.17;13.25;;;5.10;99.90;;;;;;5012475;28;20096;-77
2020/12/28 03:01:37;;;;;;;25.52;11.75;;;5.10;99.90;;;;;;5023247;28;20061;-77
2020/12/28 03:04:21;;;;;;;37.58;17.98;;;5.10;99.90;;;;;;5019721;28;20049;-76
2020/12/28 03:07:06;;;;;;;62.85;29.77;;;5.10;99.90;;;;;;5013075;28;20050;-77
2020/12/28 03:09:58;;;;;;;38.55;18.42;;;5.00;99.90;;;;;;5001364;28;20034;-76
2020/12/28 03:12:43;;;;;;;14.45;7.53;;;5.00;99.90;;;;;;5013983;28;20037;-77
2020/12/28 03:15:28;;;;;;;9.38;4.55;;;5.00;99.90;;;;;;5015378;28;20049;-81
2020/12/28 03:18:12;;;;;;;34.45;19.00;;;5.10;99.90;;;;;;5012482;28;20041;-76
2020/12/28 03:21:08;;;;;;;11.63;6.97;;;5.00;99.90;;;;;;4968480;28;20496;-76
2020/12/28 03:23:52;;;;;;;9.15;5.35;;;5.00;99.90;;;;;;5004554;28;20053;-75
2020/12/28 03:26:37;;;;;;;4.88;2.38;;;5.00;99.90;;;;;;5012027;28;20454;-76
2020/12/28 03:29:21;;;;;;;18.83;9.45;;;5.00;99.90;;;;;;5015128;28;20042;-76
2020/12/28 03:32:06;;;;;;;25.80;13.23;;;5.00;99.90;;;;;;5022836;28;20045;-76
2020/12/28 03:34:50;;;;;;;5.32;3.25;;;5.00;99.90;;;;;;5021780;28;20041;-76
2020/12/28 03:37:35;;;;;;;2.33;1.20;;;5.00;99.90;;;;;;5016229;28;20057;-76
2020/12/28 03:40:19;;;;;;;4.00;1.98;;;5.00;99.90;;;;;;5016314;28;20380;-76
2020/12/28 03:43:04;;;;;;;1.13;0.60;;;5.00;99.90;;;;;;5016323;28;20499;-76
2020/12/28 03:45:48;;;;;;;1.67;1.25;;;5.00;99.90;;;;;;5015772;28;20042;-76
2020/12/28 03:48:33;;;;;;;1.50;0.60;;;5.00;99.90;;;;;;5018040;28;20041;-76
2020/12/28 03:51:18;;;;;;;0.90;0.40;;;4.90;99.90;;;;;;5022787;28;20046;-76
2020/12/28 03:54:02;;;;;;;1.75;0.50;;;5.00;99.90;;;;;;5015932;28;20045;-76
2020/12/28 03:56:47;;;;;;;2.88;0.60;;;5.00;99.90;;;;;;5015392;28;20038;-76
2020/12/28 03:59:32;;;;;;;1.25;0.80;;;4.90;99.90;;;;;;5015665;28;20041;-76
2020/12/28 04:02:16;;;;;;;0.47;0.30;;;4.90;99.90;;;;;;5015572;28;20034;-76
2020/12/28 04:05:01;;;;;;;0.57;0.30;;;5.00;99.90;;;;;;5016341;28;20041;-76
2020/12/28 04:07:45;;;;;;;0.88;0.40;;;4.90;99.90;;;;;;5018335;28;20499;-76
2020/12/28 04:10:50;;;;;;;0.43;0.30;;;4.90;99.90;;;;;;4955810;28;20588;-76
2020/12/28 04:13:30;;;;;;;0.88;0.43;;;4.90;99.90;;;;;;4973096;28;20154;-79
2020/12/28 04:15:58;;;;;;;1.10;0.50;;;4.90;99.90;;;;;;4997278;28;20050;-76
2020/12/28 04:18:24;;;;;;;0.80;0.47;;;4.90;99.90;;;;;;5015647;28;20482;-76
2020/12/28 04:20:50;;;;;;;2.05;0.45;;;4.90;99.90;;;;;;5015712;28;20034;-76
2020/12/28 04:23:16;;;;;;;1.40;0.65;;;4.90;99.90;;;;;;5027075;28;20030;-76
2020/12/28 04:25:43;;;;;;;0.70;0.52;;;5.00;99.90;;;;;;5016743;28;20045;-76
2020/12/28 04:28:09;;;;;;;0.93;0.40;;;5.00;99.90;;;;;;5016430;28;20049;-76
2020/12/28 04:30:35;;;;;;;0.98;0.50;;;4.90;99.90;;;;;;5015994;28;20029;-77
2020/12/28 04:33:01;;;;;;;1.58;0.50;;;4.90;99.90;;;;;;5015577;28;20029;-77
2020/12/28 04:35:28;;;;;;;1.13;0.55;;;5.00;99.90;;;;;;5014579;28;20060;-77
2020/12/28 04:37:54;;;;;;;1.30;0.70;;;5.00;99.90;;;;;;5017843;28;20026;-76
2020/12/28 04:40:20;;;;;;;2.15;1.20;;;4.90;99.90;;;;;;5017333;28;20029;-75
2020/12/28 04:42:46;;;;;;;2.35;0.98;;;4.90;99.90;;;;;;5035245;28;20060;-76
2020/12/28 04:45:12;;;;;;;2.38;1.08;;;4.90;99.90;;;;;;5026298;28;20502;-75
2020/12/28 04:47:39;;;;;;;2.83;1.13;;;5.00;99.90;;;;;;5015827;28;20037;-78
2020/12/28 04:50:06;;;;;;;3.00;1.08;;;4.90;99.90;;;;;;5016184;28;20459;-76
2020/12/28 04:52:34;;;;;;;2.15;1.05;;;4.90;99.90;;;;;;5016426;28;20467;-79
2020/12/28 04:55:00;;;;;;;4.22;0.88;;;4.90;99.90;;;;;;5016568;28;20026;-78
2020/12/28 04:57:27;;;;;;;2.80;0.95;;;4.90;99.90;;;;;;5016052;28;20037;-78
2020/12/28 04:59:55;;;;;;;1.80;0.80;;;4.90;99.90;;;;;;5019952;28;20036;-78
2020/12/28 05:02:22;;;;;;;1.33;0.73;;;4.90;99.90;;;;;;5025513;28;20038;-77
2020/12/28 05:04:49;;;;;;;0.73;0.40;;;4.90;99.90;;;;;;5017682;28;20034;-77
2020/12/28 05:07:15;;;;;;;1.75;0.60;;;4.90;99.90;;;;;;5016372;28;20065;-77
2020/12/28 05:09:42;;;;;;;1.85;0.55;;;4.90;99.90;;;;;;5015087;28;20040;-77
2020/12/28 05:12:09;;;;;;;1.70;0.70;;;4.90;99.90;;;;;;5015488;28;20045;-77
2020/12/28 05:14:35;;;;;;;1.42;0.65;;;4.80;99.90;;;;;;5014453;28;20037;-78
2020/12/28 05:17:07;;;;;;;1.10;0.50;;;4.70;99.90;;;;;;5014969;28;20033;-77
2020/12/28 05:19:34;;;;;;;0.70;0.40;;;4.70;99.90;;;;;;5014186;28;20057;-78
2020/12/28 05:22:01;;;;;;;1.92;0.70;;;4.70;99.90;;;;;;5014044;28;20033;-78
2020/12/28 05:24:27;;;;;;;2.72;0.60;;;4.70;99.90;;;;;;5014321;28;20041;-79
2020/12/28 05:26:55;;;;;;;1.55;0.60;;;4.80;99.90;;;;;;5034005;28;20493;-78
2020/12/28 05:29:26;;;;;;;2.47;0.90;;;4.80;99.90;;;;;;5014530;28;20396;-78
2020/12/28 05:31:54;;;;;;;1.75;0.75;;;4.80;99.90;;;;;;5014691;28;20042;-78
2020/12/28 05:34:22;;;;;;;1.42;0.50;;;4.80;99.90;;;;;;5029057;28;20049;-78
2020/12/28 05:36:51;;;;;;;3.03;0.93;;;4.80;99.90;;;;;;5013757;28;20034;-78
2020/12/28 05:39:20;;;;;;;2.13;0.88;;;4.70;99.90;;;;;;5013555;28;20045;-78
2020/12/28 05:42:06;;;;;;;1.38;0.52;;;4.80;99.90;;;;;;5013712;28;20025;-78
2020/12/28 05:44:33;;;;;;;1.10;0.43;;;4.80;99.90;;;;;;5013855;28;20030;-79
2020/12/28 05:47:10;;;;;;;1.98;0.73;;;4.80;99.90;;;;;;5014825;28;20041;-78
2020/12/28 05:49:39;;;;;;;1.15;0.60;;;4.80;99.90;;;;;;5013429;28;20030;-78
2020/12/28 05:52:07;;;;;;;3.35;0.70;;;4.80;99.90;;;;;;5012863;28;20026;-78
2020/12/28 05:54:34;;;;;;;1.50;0.60;;;4.80;99.90;;;;;;5013422;28;20391;-78
2020/12/28 05:57:01;;;;;;;2.40;0.70;;;4.80;99.90;;;;;;5017181;28;20459;-78
2020/12/28 05:59:27;;;;;;;1.27;0.70;;;4.80;99.90;;;;;;5033370;28;20381;-78
2020/12/28 06:01:53;;;;;;;1.40;0.60;;;4.80;99.90;;;;;;5013916;28;20357;-78
2020/12/28 06:04:20;;;;;;;2.05;0.65;;;4.90;99.90;;;;;;5014007;28;20036;-78
2020/12/28 06:06:47;;;;;;;1.40;0.63;;;4.80;99.90;;;;;;5013817;28;20399;-78
2020/12/28 06:09:17;;;;;;;1.25;0.73;;;4.80;99.90;;;;;;5024783;28;20046;-78
2020/12/28 06:11:44;;;;;;;2.80;1.30;;;4.80;99.90;;;;;;5013353;28;20030;-78
2020/12/28 06:14:18;;;;;;;2.03;1.15;;;4.80;99.90;;;;;;5013541;28;20030;-78
2020/12/28 06:16:45;;;;;;;1.23;0.73;;;4.80;99.90;;;;;;5013167;28;20040;-78
2020/12/28 06:19:24;;;;;;;2.67;1.30;;;4.80;99.90;;;;;;5013404;28;20034;-78
2020/12/28 06:21:54;;;;;;;2.55;1.10;;;4.80;99.90;;;;;;5013076;28;20029;-78
2020/12/28 06:24:28;;;;;;;2.22;1.20;;;4.80;99.90;;;;;;5013276;28;20034;-78
2020/12/28 06:27:03;;;;;;;3.05;1.30;;;4.80;99.90;;;;;;5013348;28;20046;-77
2020/12/28 06:29:30;;;;;;;2.60;1.17;;;4.70;99.90;;;;;;5021758;28;20042;-78
2020/12/28 06:31:56;;;;;;;3.15;1.10;;;4.70;99.90;;;;;;5027257;28;20034;-78
2020/12/28 06:34:22;;;;;;;1.95;1.40;;;4.60;99.90;;;;;;5013389;28;20030;-78
2020/12/28 06:36:59;;;;;;;2.05;1.23;;;4.70;99.90;;;;;;5012888;28;20049;-78
2020/12/28 06:39:25;;;;;;;2.15;1.35;;;4.70;99.90;;;;;;5013108;28;20025;-77
2020/12/28 06:41:51;;;;;;;3.90;1.65;;;4.70;99.90;;;;;;5012798;28;20059;-77
2020/12/28 06:44:27;;;;;;;3.00;1.52;;;4.70;99.90;;;;;;5013131;28;20557;-77
2020/12/28 06:46:54;;;;;;;2.53;1.20;;;4.80;99.90;;;;;;5012845;28;20037;-77
2020/12/28 06:49:20;;;;;;;4.35;1.60;;;4.80;99.90;;;;;;5023694;28;20030;-77
2020/12/28 06:51:46;;;;;;;2.40;1.50;;;4.80;99.90;;;;;;5016061;28;20033;-77
2020/12/28 06:54:13;;;;;;;3.28;1.63;;;4.80;99.90;;;;;;5013294;28;20030;-78
2020/12/28 06:56:40;;;;;;;3.15;1.30;;;4.80;99.90;;;;;;5012189;28;20045;-78
2020/12/28 06:59:12;;;;;;;1.90;1.30;;;4.70;99.90;;;;;;5012803;28;20048;-77
2020/12/28 07:01:44;;;;;;;3.15;1.23;;;4.70;99.90;;;;;;5014328;28;20041;-77
2020/12/28 07:04:10;;;;;;;2.38;1.70;;;4.60;99.90;;;;;;5027858;28;20038;-77
2020/12/28 07:06:38;;;;;;;2.38;1.48;;;4.60;99.90;;;;;;5011083;28;20061;-77
2020/12/28 07:09:06;;;;;;;4.32;2.15;;;4.50;99.90;;;;;;5012284;28;20037;-76
2020/12/28 07:11:33;;;;;;;3.67;2.15;;;4.60;99.90;;;;;;5012590;28;20037;-78
2020/12/28 07:14:04;;;;;;;3.50;1.45;;;4.60;99.90;;;;;;5026083;28;20125;-76
2020/12/28 07:16:31;;;;;;;3.58;2.03;;;4.60;99.90;;;;;;5011559;28;20060;-79
2020/12/28 07:19:04;;;;;;;3.40;1.98;;;4.50;99.90;;;;;;5012648;28;20452;-77
2020/12/28 07:21:31;;;;;;;4.30;2.30;;;4.60;99.90;;;;;;5011452;28;20472;-77
2020/12/28 07:23:57;;;;;;;4.22;2.58;;;4.60;99.90;;;;;;5010936;28;20479;-77
2020/12/28 07:26:27;;;;;;;6.03;2.65;;;4.60;99.90;;;;;;5012746;28;20368;-77
2020/12/28 07:28:54;;;;;;;3.40;2.42;;;4.60;99.90;;;;;;5011713;28;20052;-76
2020/12/28 07:31:22;;;;;;;3.70;2.50;;;4.60;99.90;;;;;;5022402;28;20037;-77
2020/12/28 07:33:50;;;;;;;5.13;3.22;;;4.60;99.90;;;;;;5009529;28;20483;-78
2020/12/28 07:36:20;;;;;;;4.07;2.75;;;4.60;99.90;;;;;;5012572;28;20041;-77
2020/12/28 07:38:48;;;;;;;3.10;2.22;;;4.60;99.90;;;;;;5011787;28;20045;-78
2020/12/28 07:41:22;;;;;;;3.20;2.65;;;4.60;99.90;;;;;;5012776;28;20045;-77
2020/12/28 07:43:57;;;;;;;4.47;2.85;;;4.60;99.90;;;;;;5011595;28;20387;-77
2020/12/28 07:46:32;;;;;;;5.47;3.42;;;4.50;99.90;;;;;;5015687;28;20046;-77
2020/12/28 07:49:35;;;;;;;5.03;2.95;;;4.50;99.90;;;;;;5012906;28;20470;-77
2020/12/28 07:52:14;;;;;;;4.80;2.90;;;4.50;99.90;;;;;;4998072;28;20053;-77
2020/12/28 07:54:46;;;;;;;4.60;3.42;;;4.50;99.90;;;;;;5025971;28;20045;-78
2020/12/28 07:57:20;;;;;;;7.32;4.80;;;4.50;99.90;;;;;;5012411;28;20045;-78
2020/12/28 08:00:07;;;;;;;5.63;3.95;;;4.50;99.90;;;;;;5012189;28;20026;-78
2020/12/28 08:02:49;;;;;;;4.80;3.47;;;4.50;99.90;;;;;;5026861;28;20042;-79
2020/12/28 08:05:19;;;;;;;5.15;3.92;;;4.50;99.90;;;;;;5010954;28;20042;-78
2020/12/28 08:07:45;;;;;;;5.95;3.90;;;4.50;99.90;;;;;;5011595;28;20037;-78
2020/12/28 08:10:12;;;;;;;6.78;3.97;;;4.50;99.90;;;;;;5011966;28;20045;-78
2020/12/28 08:12:53;;;;;;;5.95;4.35;;;4.50;99.90;;;;;;5011659;28;20034;-78
2020/12/28 08:15:32;;;;;;;6.32;4.70;;;4.50;99.90;;;;;;5026916;28;20052;-77
2020/12/28 08:18:06;;;;;;;8.00;4.82;;;4.50;99.90;;;;;;5015365;28;20038;-78
2020/12/28 08:20:33;;;;;;;6.18;4.97;;;4.50;99.90;;;;;;5014912;28;20037;-79
2020/12/28 08:22:59;;;;;;;6.03;4.38;;;4.50;99.90;;;;;;5024672;28;20044;-77
2020/12/28 08:25:30;;;;;;;5.47;3.95;;;4.50;99.90;;;;;;5015738;28;20030;-77
2020/12/28 08:27:57;;;;;;;;;;;4.50;99.90;;;;;;4997452;28;20506;-78
2020/12/28 08:30:31;;;;;;;10.60;6.00;;;4.50;99.90;;;;;;5015429;28;20374;-77
2020/12/28 08:32:59;;;;;;;201.63;81.30;;;4.60;99.90;;;;;;5014250;28;20039;-80
2020/12/28 08:35:26;;;;;;;46.42;19.95;;;4.60;99.90;;;;;;5015777;28;20034;-76
2020/12/28 08:37:53;;;;;;;312.20;143.82;;;4.60;99.90;;;;;;5014927;28;20041;-76
2020/12/28 08:40:23;;;;;;;42.55;22.60;;;4.60;99.90;;;;;;5020505;28;20041;-77
2020/12/28 08:42:57;;;;;;;12.77;7.93;;;4.60;99.90;;;;;;5031202;28;20041;-77
2020/12/28 08:45:28;;;;;;;26.50;13.40;;;4.60;99.90;;;;;;5013881;28;20045;-76
2020/12/28 08:47:59;;;;;;;43.35;23.08;;;4.60;99.90;;;;;;5014776;28;20593;-76
2020/12/28 08:50:33;;;;;;;196.02;72.10;;;4.70;99.90;;;;;;5029302;28;20468;-77
2020/12/28 08:52:59;;;;;;;231.35;84.85;;;4.70;99.90;;;;;;5014653;28;20036;-76
2020/12/28 08:55:25;;;;;;;19.60;9.45;;;4.80;99.90;;;;;;5015160;28;20026;-77
2020/12/28 08:57:54;;;;;;;17.40;7.63;;;4.80;99.90;;;;;;5013307;28;20042;-78
2020/12/28 09:00:24;;;;;;;18.02;7.25;;;4.90;99.90;;;;;;5013797;28;20037;-78
2020/12/28 09:02:55;;;;;;;26.50;13.40;;;4.90;99.90;;;;;;5014464;28;20026;-77
2020/12/28 09:05:23;;;;;;;15.50;7.88;;;4.90;99.90;;;;;;5025979;28;20030;-78
2020/12/28 09:07:49;;;;;;;7.13;4.38;;;4.90;99.90;;;;;;5013657;28;20037;-79
2020/12/28 09:10:16;;;;;;;32.03;16.52;;;5.00;99.90;;;;;;5013960;28;20075;-79
2020/12/28 09:12:42;;;;;;;94.50;41.05;;;5.10;99.90;;;;;;5014137;28;20036;-79
2020/12/28 09:15:09;;;;;;;33.60;15.73;;;5.10;99.90;;;;;;4997644;28;20069;-79
2020/12/28 09:17:36;;;;;;;12.93;5.82;;;5.20;99.90;;;;;;5013973;28;20037;-79
2020/12/28 09:20:04;;;;;;;24.00;11.57;;;5.10;99.90;;;;;;5013101;28;20468;-79
2020/12/28 09:22:31;;;;;;;68.32;31.17;;;5.20;99.90;;;;;;5028000;28;20045;-79
2020/12/28 09:24:57;;;;;;;42.88;21.13;;;5.10;99.90;;;;;;5013720;28;20029;-79
2020/12/28 09:27:23;;;;;;;7.65;4.15;;;5.20;99.90;;;;;;5013020;28;20029;-79
2020/12/28 09:29:49;;;;;;;16.70;7.40;;;5.20;99.90;;;;;;5013991;28;20468;-79
2020/12/28 09:32:16;;;;;;;175.13;71.03;;;5.30;99.90;;;;;;5013432;28;20046;-79
2020/12/28 09:34:43;;;;;;;211.60;84.50;;;5.30;99.90;;;;;;5015099;28;20089;-79
2020/12/28 09:37:09;;;;;;;23.80;11.98;;;5.30;99.90;;;;;;5012550;28;20033;-79
2020/12/28 09:39:36;;;;;;;44.90;18.73;;;5.30;99.90;;;;;;5012839;28;20041;-78
2020/12/28 09:42:03;;;;;;;21.70;9.45;;;5.30;99.90;;;;;;5013054;28;20042;-79
2020/12/28 09:44:30;;;;;;;140.50;57.22;;;5.30;99.90;;;;;;5012847;28;20045;-77
2020/12/28 09:46:58;;;;;;;18.63;10.18;;;5.30;99.90;;;;;;4996662;28;20247;-78
2020/12/28 09:49:25;;;;;;;49.85;22.67;;;5.40;99.90;;;;;;5014159;28;20045;-78
2020/12/28 09:51:55;;;;;;;15.50;7.07;;;5.40;99.90;;;;;;5013314;28;20037;-78
2020/12/28 09:54:22;;;;;;;9.60;4.25;;;5.50;99.90;;;;;;5013892;28;20033;-77
2020/12/28 09:56:49;;;;;;;16.00;8.20;;;5.50;99.90;;;;;;5012824;28;20034;-78
2020/12/28 09:59:16;;;;;;;3.38;2.10;;;5.50;99.90;;;;;;5013359;28;20030;-78
2020/12/28 10:01:46;;;;;;;19.67;9.43;;;5.50;99.90;;;;;;5012807;28;20030;-76
2020/12/28 10:04:13;;;;;;;13.73;7.63;;;5.60;99.90;;;;;;5012514;28;20041;-76
2020/12/28 10:06:40;;;;;;;48.75;22.13;;;5.60;99.90;;;;;;5012858;28;20037;-77
2020/12/28 10:09:10;;;;;;;10.73;6.22;;;5.70;99.90;;;;;;5020784;28;20042;-76
2020/12/28 10:11:38;;;;;;;20.00;10.57;;;5.70;99.90;;;;;;5013003;28;20414;-77
2020/12/28 10:14:05;;;;;;;10.05;4.95;;;5.80;99.90;;;;;;5020897;28;20383;-76
2020/12/28 10:16:32;;;;;;;11.68;6.47;;;5.80;99.90;;;;;;5018006;28;20042;-76
2020/12/28 10:18:59;;;;;;;9.02;4.50;;;5.80;99.90;;;;;;5011735;28;20223;-76
2020/12/28 10:21:27;;;;;;;33.70;16.27;;;5.90;99.90;;;;;;5014584;28;20034;-76
2020/12/28 10:23:54;;;;;;;7.75;5.13;;;5.90;99.90;;;;;;5026581;28;20044;-78
2020/12/28 10:26:27;;;;;;;5.40;2.58;;;5.90;99.90;;;;;;5021393;28;20037;-76
2020/12/28 10:28:57;;;;;;;3.03;1.52;;;6.00;99.90;;;;;;5022534;28;20033;-76
2020/12/28 10:31:24;;;;;;;6.35;3.63;;;6.00;99.90;;;;;;5022599;28;20030;-76
2020/12/28 10:33:50;;;;;;;3.53;1.50;;;6.00;99.90;;;;;;5010099;28;20484;-76
2020/12/28 10:36:24;;;;;;;14.88;8.40;;;6.00;99.90;;;;;;5012963;28;20025;-75
2020/12/28 10:38:52;;;;;;;4.85;3.25;;;6.00;99.90;;;;;;5022017;28;20029;-75
2020/12/28 10:41:32;;;;;;;3.70;1.65;;;6.00;99.90;;;;;;5012876;28;20056;-76
2020/12/28 10:43:59;;;;;;;2.38;0.80;;;6.00;99.90;;;;;;5018919;28;20060;-76
2020/12/28 10:46:26;;;;;;;3.72;0.73;;;6.00;99.90;;;;;;5023473;28;20042;-76
2020/12/28 10:48:52;;;;;;;10.48;5.40;;;6.00;99.90;;;;;;5019796;28;20388;-76
2020/12/28 10:51:19;;;;;;;5.35;2.83;;;6.20;99.90;;;;;;5041000;28;20386;-76
2020/12/28 10:53:45;;;;;;;4.30;2.38;;;6.30;99.90;;;;;;5035485;28;20061;-76
2020/12/28 10:56:11;;;;;;;2.80;1.40;;;6.30;99.90;;;;;;5018156;28;20399;-75
2020/12/28 10:58:38;;;;;;;1.05;0.68;;;6.30;99.90;;;;;;5012463;28;20046;-78
2020/12/28 11:01:06;;;;;;;1.42;0.80;;;6.30;99.90;;;;;;5012447;28;20119;-76
2020/12/28 11:03:33;;;;;;;5.15;2.72;;;6.30;99.90;;;;;;5012190;28;20033;-76
2020/12/28 11:06:01;;;;;;;1.85;1.00;;;6.40;99.90;;;;;;5011617;28;20034;-76
2020/12/28 11:08:28;;;;;;;63.03;33.35;;;6.30;99.90;;;;;;5012496;28;20048;-75
2020/12/28 11:10:54;;;;;;;9.45;4.38;;;6.30;99.90;;;;;;5011826;28;20032;-76
2020/12/28 11:13:21;;;;;;;4.30;2.38;;;6.40;99.90;;;;;;5010758;28;20065;-76
2020/12/28 11:15:47;;;;;;;39.05;17.73;;;6.50;99.90;;;;;;5013087;28;20037;-77
2020/12/28 11:18:13;;;;;;;35.10;13.70;;;6.50;99.90;;;;;;5018930;28;20038;-76
2020/12/28 11:20:39;;;;;;;40.83;12.55;;;6.60;99.90;;;;;;5020381;28;20036;-80
2020/12/28 11:23:06;;;;;;;53.08;19.95;;;6.60;99.90;;;;;;5022741;28;20042;-77
2020/12/28 11:25:33;;;;;;;18.63;9.00;;;6.50;99.90;;;;;;5026733;28;20040;-78
2020/12/28 11:27:59;;;;;;;68.65;27.48;;;6.50;99.90;;;;;;5011459;28;20045;-77
2020/12/28 11:30:28;;;;;;;47.90;21.15;;;6.50;99.90;;;;;;4987923;28;20043;-78
2020/12/28 11:32:54;;;;;;;63.15;25.88;;;6.50;99.90;;;;;;4978295;28;20054;-77
2020/12/28 11:35:21;;;;;;;13.07;6.07;;;6.50;99.90;;;;;;4973000;28;20035;-74
2020/12/28 11:37:47;;;;;;;41.13;16.10;;;6.50;99.90;;;;;;4972417;28;20050;-75
2020/12/28 11:40:14;;;;;;;6.63;3.15;;;6.60;99.90;;;;;;4975452;28;20515;-73
2020/12/28 11:42:40;;;;;;;8.13;3.70;;;6.60;99.90;;;;;;4984925;28;20038;-75
2020/12/28 11:45:08;;;;;;;31.48;13.68;;;6.70;99.90;;;;;;4972471;28;20050;-73
2020/12/28 11:47:36;;;;;;;26.58;11.48;;;6.70;99.90;;;;;;4972306;28;20489;-73
2020/12/28 11:50:06;;;;;;;54.20;23.40;;;6.70;99.90;;;;;;4974483;28;20507;-78
2020/12/28 11:52:32;;;;;;;13.40;5.95;;;6.70;99.90;;;;;;4976717;28;20023;-76
2020/12/28 11:54:59;;;;;;;5.45;2.38;;;6.70;99.90;;;;;;4980536;28;20261;-78
2020/12/28 11:57:26;;;;;;;54.92;22.25;;;6.70;99.90;;;;;;4976966;28;20046;-76
2020/12/28 11:59:52;;;;;;;80.88;33.40;;;6.60;99.90;;;;;;4995653;28;20038;-77
2020/12/28 12:02:22;;;;;;;57.80;24.17;;;6.60;99.90;;;;;;4986294;28;20034;-77
2020/12/28 12:04:49;;;;;;;41.08;19.05;;;6.50;99.90;;;;;;4988429;28;20041;-78
2020/12/28 12:07:21;;;;;;;21.88;11.88;;;6.40;99.90;;;;;;4979434;28;20050;-79
2020/12/28 12:09:47;;;;;;;22.13;12.68;;;6.40;99.90;;;;;;4991786;28;20066;-76
2020/12/28 12:12:14;;;;;;;131.27;56.15;;;6.40;99.90;;;;;;4986928;28;20034;-79
2020/12/28 12:14:41;;;;;;;45.97;20.63;;;6.40;99.90;;;;;;4996385;28;20391;-77
2020/12/28 12:17:08;;;;;;;86.68;30.00;;;6.40;99.90;;;;;;4981210;28;20042;-78
2020/12/28 12:19:35;;;;;;;54.13;20.30;;;6.30;99.90;;;;;;4969152;28;20061;-78
2020/12/28 12:22:02;;;;;;;19.50;7.68;;;6.30;99.90;;;;;;4989240;28;20326;-78
2020/12/28 12:24:28;;;;;;;19.48;7.28;;;6.30;99.90;;;;;;4984323;28;20038;-78
2020/12/28 12:26:55;;;;;;;84.45;32.33;;;6.20;99.90;;;;;;4981662;28;20047;-80
2020/12/28 12:29:21;;;;;;;45.15;19.77;;;6.20;99.90;;;;;;4998147;28;20041;-77
2020/12/28 12:31:52;;;;;;;34.50;13.15;;;6.20;99.90;;;;;;5003299;28;20029;-77
2020/12/28 12:34:19;;;;;;;28.17;11.48;;;6.10;99.90;;;;;;4998731;28;20046;-77
2020/12/28 12:36:46;;;;;;;68.63;26.92;;;6.10;99.90;;;;;;5014204;28;20041;-77
2020/12/28 12:39:12;;;;;;;113.13;44.65;;;6.00;99.90;;;;;;5030760;28;20041;-78
2020/12/28 12:41:38;;;;;;;22.88;9.55;;;5.90;99.90;;;;;;5014123;28;20046;-76
2020/12/28 12:44:05;;;;;;;12.15;3.80;;;5.90;99.90;;;;;;5013934;28;20403;-76
2020/12/28 12:46:31;;;;;;;36.40;13.88;;;5.80;99.90;;;;;;5016805;28;20391;-78
2020/12/28 12:48:59;;;;;;;42.60;16.83;;;5.80;99.90;;;;;;5013324;28;20042;-77
2020/12/28 12:51:29;;;;;;;103.35;37.20;;;5.70;99.90;;;;;;5014334;28;20046;-76
2020/12/28 12:53:55;;;;;;;51.38;16.55;;;5.70;99.90;;;;;;5013070;28;20042;-77
2020/12/28 12:56:22;;;;;;;80.10;25.40;;;5.60;99.90;;;;;;5014613;28;20034;-76
2020/12/28 12:58:48;;;;;;;18.05;6.93;;;5.60;99.90;;;;;;5014140;28;20036;-76
2020/12/28 13:01:15;;;;;;;38.28;12.52;;;5.50;99.90;;;;;;5013259;28;20042;-78
2020/12/28 13:03:41;;;;;;;33.47;11.65;;;5.50;99.90;;;;;;5013316;28;20038;-78
2020/12/28 13:06:11;;;;;;;46.55;15.10;;;5.40;99.90;;;;;;4997240;28;20419;-77
2020/12/28 13:08:37;;;;;;;12.30;4.28;;;5.30;99.90;;;;;;5013147;28;20054;-77